Time;durP1;ratioP1;P1;durP2;ratioP2;P2;SDS_P1;SDS_P2;PMS_P1;PMS_P2;Temp;Humidity;BMP_temperature;BMP_pressure;BME280_temperature;BME280_humidity;BME280_pressure;Samples;Min_cycle;Max_cycle;Signal;HPM_P1;HPM_P2
2022/09/16 00:00:52;;;;;;;8.43;1.85;;;12.20;99.90;;;;;;5090454;28;20386;-63
2022/09/16 00:03:18;;;;;;;6.00;1.77;;;12.20;99.90;;;;;;5091675;28;20658;-63
2022/09/16 00:05:51;;;;;;;6.68;1.90;;;12.20;99.90;;;;;;5089584;28;20699;-64
2022/09/16 00:08:18;;;;;;;5.88;1.60;;;12.20;99.90;;;;;;5090375;28;20413;-63
2022/09/16 00:10:43;;;;;;;6.05;1.65;;;12.20;99.90;;;;;;5093956;28;20385;-63
2022/09/16 00:13:13;;;;;;;7.70;1.30;;;12.20;99.90;;;;;;5095688;28;20386;-63
2022/09/16 00:15:48;;;;;;;6.35;1.58;;;12.10;99.90;;;;;;5097862;28;20662;-63
2022/09/16 00:18:13;;;;;;;3.85;1.63;;;12.10;99.90;;;;;;5098501;28;20381;-64
2022/09/16 00:20:47;;;;;;;6.47;1.80;;;12.10;99.90;;;;;;5098432;28;20390;-63
2022/09/16 00:23:13;;;;;;;4.78;1.70;;;12.20;99.90;;;;;;5099975;28;20401;-63
2022/09/16 00:25:40;;;;;;;5.22;1.58;;;12.10;99.90;;;;;;5098440;28;20413;-63
2022/09/16 00:28:06;;;;;;;7.07;1.60;;;12.10;99.90;;;;;;5095638;28;20409;-63
2022/09/16 00:30:31;;;;;;;4.03;1.30;;;12.20;99.90;;;;;;5096572;28;20654;-64
2022/09/16 00:32:57;;;;;;;8.47;1.70;;;12.20;99.90;;;;;;5097584;28;20665;-63
2022/09/16 00:35:22;;;;;;;6.45;1.65;;;12.10;99.90;;;;;;5098710;28;20422;-63
2022/09/16 00:37:48;;;;;;;7.40;1.87;;;12.10;99.90;;;;;;5098952;28;20643;-63
2022/09/16 00:40:13;;;;;;;5.90;1.63;;;12.10;99.90;;;;;;5097842;28;20514;-63
2022/09/16 00:42:40;;;;;;;4.35;1.63;;;12.10;99.90;;;;;;5098287;28;20462;-64
2022/09/16 00:45:18;;;;;;;7.32;1.67;;;12.10;99.90;;;;;;5097554;28;20393;-63
2022/09/16 00:47:52;;;;;;;6.13;1.50;;;12.10;99.90;;;;;;5097367;28;20699;-63
2022/09/16 00:50:45;;;;;;;6.80;1.90;;;12.20;99.90;;;;;;5096595;28;20386;-63
2022/09/16 00:53:16;;;;;;;9.05;1.85;;;12.10;99.90;;;;;;5094802;28;20768;-63
2022/09/16 00:55:43;;;;;;;8.65;1.80;;;12.10;99.90;;;;;;5095511;28;20471;-63
2022/09/16 00:58:18;;;;;;;6.38;1.60;;;12.00;99.90;;;;;;5095175;28;20963;-63
2022/09/16 01:00:43;;;;;;;5.63;1.80;;;12.00;99.90;;;;;;5095547;28;20385;-63
2022/09/16 01:03:09;;;;;;;4.18;1.30;;;11.90;99.90;;;;;;5095994;28;20398;-63
2022/09/16 01:05:36;;;;;;;6.43;1.53;;;11.90;99.90;;;;;;5096161;28;20410;-63
2022/09/16 01:08:03;;;;;;;6.05;1.65;;;12.00;99.90;;;;;;5097334;28;20413;-64
2022/09/16 01:10:29;;;;;;;5.93;1.43;;;11.90;99.90;;;;;;5094947;28;20405;-64
2022/09/16 01:13:04;;;;;;;5.93;1.53;;;11.90;99.90;;;;;;5095322;28;20474;-64
2022/09/16 01:15:53;;;;;;;5.75;1.30;;;11.90;99.90;;;;;;5094365;28;20464;-64
2022/09/16 01:18:39;;;;;;;4.57;1.60;;;11.90;99.90;;;;;;5055008;28;20416;-64
2022/09/16 01:21:10;;;;;;;4.28;1.40;;;11.90;99.90;;;;;;5095622;28;20377;-64
2022/09/16 01:23:55;;;;;;;6.97;1.30;;;11.90;99.90;;;;;;5095810;28;20542;-64
2022/09/16 01:26:42;;;;;;;5.55;1.40;;;11.90;99.90;;;;;;5095179;28;20398;-64
2022/09/16 01:29:41;;;;;;;5.03;1.73;;;11.90;99.90;;;;;;5094234;28;20740;-64
2022/09/16 01:32:38;;;;;;;3.73;1.13;;;12.00;99.90;;;;;;5093312;28;20433;-64
2022/09/16 01:35:15;;;;;;;8.43;1.25;;;11.90;99.90;;;;;;5077411;28;20386;-64
2022/09/16 01:38:08;;;;;;;5.97;1.58;;;11.90;99.90;;;;;;5093849;28;20381;-64
2022/09/16 01:40:58;;;;;;;4.38;1.20;;;11.80;99.90;;;;;;5093726;28;20431;-64
2022/09/16 01:43:40;;;;;;;5.38;1.50;;;11.80;99.90;;;;;;5095391;28;20398;-64
2022/09/16 01:46:18;;;;;;;3.47;1.30;;;11.80;99.90;;;;;;5095440;28;20374;-64
2022/09/16 01:49:18;;;;;;;4.72;1.50;;;11.80;99.90;;;;;;5095375;28;20389;-64
2022/09/16 01:51:52;;;;;;;5.60;1.80;;;11.80;99.90;;;;;;5093882;28;20579;-64
2022/09/16 01:54:30;;;;;;;5.15;1.83;;;11.80;99.90;;;;;;5093679;28;20392;-64
2022/09/16 01:57:06;;;;;;;4.10;1.60;;;11.70;99.90;;;;;;5096016;28;20393;-64
2022/09/16 01:59:49;;;;;;;5.82;1.80;;;11.70;99.90;;;;;;5094415;28;20693;-64
2022/09/16 02:02:30;;;;;;;5.38;1.80;;;11.60;99.90;;;;;;5095758;28;20748;-63
2022/09/16 02:04:59;;;;;;;7.20;1.85;;;11.60;99.90;;;;;;5095606;28;20405;-64
2022/09/16 02:07:30;;;;;;;7.80;1.85;;;11.50;99.90;;;;;;5096522;28;20409;-64
2022/09/16 02:10:09;;;;;;;4.43;1.83;;;11.50;99.90;;;;;;5096258;28;20447;-64
2022/09/16 02:12:39;;;;;;;4.00;1.80;;;11.50;99.90;;;;;;5096281;28;20895;-64
2022/09/16 02:15:10;;;;;;;6.68;2.10;;;11.50;99.90;;;;;;5094331;28;20488;-64
2022/09/16 02:17:42;;;;;;;4.07;1.60;;;11.50;99.90;;;;;;5094556;28;20386;-64
2022/09/16 02:20:16;;;;;;;4.57;1.70;;;11.50;99.90;;;;;;5093958;28;20378;-64
2022/09/16 02:23:01;;;;;;;6.45;2.22;;;11.50;99.90;;;;;;5093309;28;20541;-64
2022/09/16 02:25:29;;;;;;;5.93;2.33;;;11.50;99.90;;;;;;5093516;28;20439;-64
2022/09/16 02:27:59;;;;;;;6.57;2.10;;;11.50;99.90;;;;;;5094430;28;20493;-64
2022/09/16 02:30:25;;;;;;;6.85;1.77;;;11.50;99.90;;;;;;5095948;28;20458;-64
2022/09/16 02:32:57;;;;;;;5.53;1.70;;;11.50;99.90;;;;;;5094469;28;20378;-64
2022/09/16 02:35:25;;;;;;;5.50;1.90;;;11.50;99.90;;;;;;5094632;28;20631;-66
2022/09/16 02:37:58;;;;;;;7.65;2.13;;;11.50;99.90;;;;;;5094018;28;20703;-64
2022/09/16 02:40:30;;;;;;;5.38;1.50;;;11.50;99.90;;;;;;5093828;28;20398;-64
2022/09/16 02:42:57;;;;;;;6.18;1.92;;;11.50;99.90;;;;;;5090593;28;20381;-64
2022/09/16 02:45:32;;;;;;;6.68;1.63;;;11.40;99.90;;;;;;5091656;28;20831;-64
2022/09/16 02:48:11;;;;;;;6.43;1.98;;;11.50;99.90;;;;;;5093267;28;20455;-65
2022/09/16 02:50:58;;;;;;;7.13;1.67;;;11.50;99.90;;;;;;5094206;28;20439;-64
2022/09/16 02:53:45;;;;;;;4.88;1.88;;;11.50;99.90;;;;;;5093404;28;20382;-64
2022/09/16 02:56:21;;;;;;;5.45;1.83;;;11.50;99.90;;;;;;5094052;28;20382;-64
2022/09/16 02:58:46;;;;;;;7.28;2.20;;;11.40;99.90;;;;;;5091646;28;20495;-64
2022/09/16 03:01:12;;;;;;;5.93;1.63;;;11.40;99.90;;;;;;5092100;28;20421;-64
2022/09/16 03:03:39;;;;;;;3.58;1.20;;;11.40;99.90;;;;;;5094119;28;20406;-65
2022/09/16 03:06:07;;;;;;;5.25;1.55;;;11.40;99.90;;;;;;5092929;28;20688;-64
2022/09/16 03:08:35;;;;;;;5.60;1.55;;;11.40;99.90;;;;;;5094526;28;20393;-64
2022/09/16 03:11:14;;;;;;;4.22;1.52;;;11.30;99.90;;;;;;5095392;28;20390;-64
2022/09/16 03:14:12;;;;;;;4.80;1.47;;;11.40;99.90;;;;;;5094457;28;20481;-64
2022/09/16 03:16:52;;;;;;;5.03;1.73;;;11.40;99.90;;;;;;5093877;28;20389;-64
2022/09/16 03:19:30;;;;;;;6.43;1.80;;;11.30;99.90;;;;;;5094095;28;20386;-64
2022/09/16 03:22:15;;;;;;;4.72;1.60;;;11.40;99.90;;;;;;5091291;28;20386;-64
2022/09/16 03:24:59;;;;;;;4.30;1.55;;;11.40;99.90;;;;;;5092080;28;20493;-64
2022/09/16 03:27:44;;;;;;;5.82;1.98;;;11.40;99.90;;;;;;5093668;28;20563;-63
2022/09/16 03:30:10;;;;;;;7.05;1.83;;;11.40;99.90;;;;;;5090990;28;20517;-63
2022/09/16 03:32:48;;;;;;;5.35;1.85;;;11.40;99.90;;;;;;5092088;28;20441;-63
2022/09/16 03:35:18;;;;;;;7.22;1.95;;;11.40;99.90;;;;;;5088448;28;20484;-63
2022/09/16 03:37:45;;;;;;;7.43;2.20;;;11.30;99.90;;;;;;5087863;28;20847;-63
2022/09/16 03:40:13;;;;;;;5.28;1.80;;;11.30;99.90;;;;;;5089067;28;20609;-63
2022/09/16 03:42:41;;;;;;;4.88;1.88;;;11.30;99.90;;;;;;5086921;28;20704;-63
2022/09/16 03:45:12;;;;;;;5.68;1.90;;;11.30;99.90;;;;;;5086133;28;20386;-63
2022/09/16 03:47:38;;;;;;;4.57;1.55;;;11.20;99.90;;;;;;5086813;28;20526;-63
2022/09/16 03:50:04;;;;;;;7.30;2.03;;;11.20;99.90;;;;;;5090682;28;20412;-63
2022/09/16 03:52:29;;;;;;;6.75;2.10;;;11.10;99.90;;;;;;5090515;28;20371;-63
2022/09/16 03:54:55;;;;;;;5.80;1.87;;;11.20;99.90;;;;;;5090125;28;20370;-63
2022/09/16 03:57:20;;;;;;;3.83;1.80;;;11.10;99.90;;;;;;5087731;28;20800;-63
2022/09/16 03:59:46;;;;;;;7.35;2.20;;;11.10;99.90;;;;;;5089789;28;20393;-63
2022/09/16 04:02:12;;;;;;;5.50;2.00;;;11.20;99.90;;;;;;5088978;28;20419;-64
2022/09/16 04:04:37;;;;;;;4.65;1.70;;;11.20;99.90;;;;;;5089575;28;20401;-64
2022/09/16 04:07:03;;;;;;;4.38;1.67;;;11.20;99.90;;;;;;5090055;28;20416;-63
2022/09/16 04:09:29;;;;;;;4.15;1.70;;;11.20;99.90;;;;;;5090769;28;20370;-64
2022/09/16 04:11:54;;;;;;;5.43;1.70;;;11.20;99.90;;;;;;5091055;28;20440;-64
2022/09/16 04:14:20;;;;;;;6.10;2.00;;;11.20;99.90;;;;;;5091685;28;20385;-63
2022/09/16 04:16:46;;;;;;;5.43;1.67;;;11.20;99.90;;;;;;5087145;28;20732;-63
2022/09/16 04:19:13;;;;;;;4.93;1.80;;;11.20;99.90;;;;;;5086697;28;20393;-63
2022/09/16 04:21:40;;;;;;;5.55;2.03;;;11.20;99.90;;;;;;5083796;28;20433;-63
2022/09/16 04:24:06;;;;;;;4.70;1.77;;;11.20;99.90;;;;;;5083323;28;21308;-63
2022/09/16 04:26:33;;;;;;;6.20;1.83;;;11.20;99.90;;;;;;5084226;28;20414;-64
2022/09/16 04:28:59;;;;;;;3.27;1.47;;;11.10;99.90;;;;;;5086616;28;20174;-64
2022/09/16 04:31:24;;;;;;;4.90;1.90;;;11.00;99.90;;;;;;5086249;28;20411;-64
2022/09/16 04:33:50;;;;;;;5.10;2.00;;;11.00;99.90;;;;;;5089022;28;20386;-64
2022/09/16 04:36:18;;;;;;;5.10;2.07;;;11.00;99.90;;;;;;5090122;28;20404;-64
2022/09/16 04:38:46;;;;;;;5.05;1.98;;;11.00;99.90;;;;;;5088107;28;20417;-64
2022/09/16 04:41:20;;;;;;;4.05;1.92;;;11.00;99.90;;;;;;5087935;28;20374;-64
2022/09/16 04:43:49;;;;;;;4.78;1.73;;;11.00;99.90;;;;;;5088485;28;20401;-64
2022/09/16 04:46:14;;;;;;;5.68;2.00;;;11.00;99.90;;;;;;5088407;28;20410;-64
2022/09/16 04:48:40;;;;;;;4.03;1.70;;;11.00;99.90;;;;;;5086326;28;20443;-63
2022/09/16 04:51:08;;;;;;;5.73;1.93;;;11.10;99.90;;;;;;5087536;28;20794;-64
2022/09/16 04:53:36;;;;;;;5.80;1.73;;;11.00;99.90;;;;;;5088251;28;20497;-64
2022/09/16 04:56:14;;;;;;;4.03;1.73;;;11.00;99.90;;;;;;5084101;28;20374;-63
2022/09/16 04:58:41;;;;;;;5.78;1.75;;;11.10;99.90;;;;;;5085928;28;20417;-64
2022/09/16 05:01:11;;;;;;;4.45;1.65;;;11.10;99.90;;;;;;5085392;28;20382;-64
2022/09/16 05:03:41;;;;;;;6.43;1.75;;;11.10;99.90;;;;;;5089930;28;20575;-64
2022/09/16 05:06:28;;;;;;;6.53;1.80;;;11.20;99.90;;;;;;5088130;28;20394;-64
2022/09/16 05:08:54;;;;;;;5.22;1.70;;;11.20;99.90;;;;;;5088139;28;20894;-64
2022/09/16 05:11:26;;;;;;;7.75;1.95;;;11.20;99.90;;;;;;5089001;28;20531;-63
2022/09/16 05:13:53;;;;;;;4.10;1.80;;;11.20;99.90;;;;;;5088829;28;20817;-64
2022/09/16 05:16:21;;;;;;;4.88;1.70;;;11.20;99.90;;;;;;5087671;28;20386;-64
2022/09/16 05:18:49;;;;;;;6.50;1.88;;;11.20;99.90;;;;;;5090002;28;20614;-64
2022/09/16 05:21:20;;;;;;;6.13;1.57;;;11.20;99.90;;;;;;5088997;28;20441;-64
2022/09/16 05:23:47;;;;;;;7.73;1.80;;;11.20;99.90;;;;;;5088964;28;20382;-65
2022/09/16 05:26:13;;;;;;;4.47;1.48;;;11.10;99.90;;;;;;5088464;28;20762;-63
2022/09/16 05:28:39;;;;;;;3.60;1.33;;;11.10;99.90;;;;;;5086397;28;20405;-63
2022/09/16 05:31:09;;;;;;;6.88;1.83;;;11.10;99.90;;;;;;5086710;28;20431;-64
2022/09/16 05:33:36;;;;;;;7.35;1.50;;;11.00;99.90;;;;;;5088593;28;20871;-63
2022/09/16 05:36:07;;;;;;;5.45;1.40;;;11.00;99.90;;;;;;5088491;28;20389;-63
2022/09/16 05:38:32;;;;;;;7.50;1.90;;;11.00;99.90;;;;;;5088592;28;20497;-63
2022/09/16 05:40:59;;;;;;;7.93;1.80;;;11.10;99.90;;;;;;5085104;28;20409;-63
2022/09/16 05:43:25;;;;;;;5.55;1.95;;;11.10;99.90;;;;;;5090112;28;20466;-64
2022/09/16 05:45:51;;;;;;;6.13;1.83;;;11.20;99.90;;;;;;5088509;28;20386;-64
2022/09/16 05:48:17;;;;;;;5.00;1.70;;;11.20;99.90;;;;;;5089030;28;20398;-64
2022/09/16 05:50:53;;;;;;;4.68;1.77;;;11.30;99.90;;;;;;5087280;28;20443;-64
2022/09/16 05:53:19;;;;;;;5.13;1.60;;;11.20;99.90;;;;;;5087337;28;20740;-64
2022/09/16 05:55:54;;;;;;;8.07;2.13;;;11.20;99.90;;;;;;5086078;28;20790;-63
2022/09/16 05:58:19;;;;;;;6.55;1.92;;;11.10;99.90;;;;;;5082578;28;20670;-64
2022/09/16 06:00:45;;;;;;;7.18;2.13;;;11.10;99.90;;;;;;5082892;28;20386;-64
2022/09/16 06:03:10;;;;;;;8.87;2.10;;;11.10;99.90;;;;;;5083939;28;20476;-64
2022/09/16 06:05:36;;;;;;;8.30;1.87;;;11.10;99.90;;;;;;5083308;28;20508;-64
2022/09/16 06:08:02;;;;;;;6.55;1.70;;;11.10;99.90;;;;;;5082065;28;20417;-64
2022/09/16 06:10:29;;;;;;;7.97;2.35;;;11.10;99.90;;;;;;5082290;28;20398;-63
2022/09/16 06:12:54;;;;;;;7.25;2.08;;;11.10;99.90;;;;;;5079644;28;20385;-64
2022/09/16 06:15:20;;;;;;;6.22;1.90;;;11.20;99.90;;;;;;5082426;28;20382;-64
2022/09/16 06:17:45;;;;;;;6.77;1.90;;;11.10;99.90;;;;;;5081034;28;20398;-63
2022/09/16 06:20:13;;;;;;;6.27;1.93;;;11.10;99.90;;;;;;5077323;28;20473;-64
2022/09/16 06:22:39;;;;;;;8.75;2.00;;;11.10;99.90;;;;;;5076702;28;20793;-64
2022/09/16 06:25:06;;;;;;;6.47;1.70;;;11.20;99.90;;;;;;5080540;28;20396;-64
2022/09/16 06:27:31;;;;;;;7.97;2.05;;;11.20;99.90;;;;;;5080274;28;20492;-64
2022/09/16 06:29:57;;;;;;;7.90;2.05;;;11.30;99.90;;;;;;5077755;28;20554;-64
2022/09/16 06:32:23;;;;;;;7.40;2.07;;;11.30;99.90;;;;;;5075546;28;20398;-64
2022/09/16 06:34:49;;;;;;;7.00;2.20;;;11.40;99.90;;;;;;5077589;28;20385;-64
2022/09/16 06:37:15;;;;;;;5.67;1.70;;;11.30;99.90;;;;;;5076839;28;20377;-64
2022/09/16 06:39:41;;;;;;;7.53;2.28;;;11.30;99.90;;;;;;5079523;28;20378;-64
2022/09/16 06:42:07;;;;;;;6.60;1.45;;;11.30;99.90;;;;;;5077596;28;20571;-64
2022/09/16 06:44:33;;;;;;;6.95;1.90;;;11.40;99.90;;;;;;5074309;28;20493;-64
2022/09/16 06:46:58;;;;;;;7.85;2.03;;;11.40;99.90;;;;;;5077154;28;20406;-64
2022/09/16 06:49:24;;;;;;;6.50;1.58;;;11.40;99.90;;;;;;5078784;28;20397;-65
2022/09/16 06:51:50;;;;;;;7.57;1.50;;;11.40;99.90;;;;;;5074818;28;20654;-64
2022/09/16 06:54:16;;;;;;;5.63;1.45;;;11.40;99.90;;;;;;5075985;28;20435;-64
2022/09/16 06:56:41;;;;;;;7.63;1.70;;;11.40;99.90;;;;;;5074545;28;20389;-64
2022/09/16 06:59:09;;;;;;;6.10;1.80;;;11.50;99.90;;;;;;5073855;28;20664;-64
2022/09/16 07:01:35;;;;;;;6.88;1.60;;;11.50;99.90;;;;;;5078293;28;20385;-64
2022/09/16 07:04:07;;;;;;;5.20;1.50;;;11.60;99.90;;;;;;5077095;28;20789;-64
2022/09/16 07:06:33;;;;;;;8.80;1.90;;;11.60;99.90;;;;;;5079905;28;20413;-64
2022/09/16 07:08:59;;;;;;;5.67;1.80;;;11.60;99.90;;;;;;5081649;28;20405;-64
2022/09/16 07:11:24;;;;;;;7.63;1.73;;;11.70;99.90;;;;;;5079887;28;20390;-64
2022/09/16 07:13:50;;;;;;;9.90;1.60;;;11.70;99.90;;;;;;5082100;28;20405;-64
2022/09/16 07:16:22;;;;;;;7.22;1.95;;;11.80;99.90;;;;;;5079991;28;20421;-64
2022/09/16 07:18:55;;;;;;;6.72;1.75;;;11.80;99.90;;;;;;5080493;28;20374;-64
2022/09/16 07:21:27;;;;;;;6.38;1.67;;;11.80;99.90;;;;;;5078288;28;20382;-64
2022/09/16 07:23:55;;;;;;;6.40;1.63;;;11.80;99.90;;;;;;5079274;28;20381;-65
2022/09/16 07:26:25;;;;;;;5.55;1.77;;;11.90;99.90;;;;;;5077055;28;20382;-64
2022/09/16 07:28:51;;;;;;;6.40;1.60;;;11.90;99.90;;;;;;5077676;28;20393;-64
2022/09/16 07:31:20;;;;;;;6.97;1.90;;;12.00;99.90;;;;;;5075290;28;20466;-64
2022/09/16 07:33:47;;;;;;;6.70;1.40;;;12.00;99.90;;;;;;5072299;28;20370;-64
2022/09/16 07:36:16;;;;;;;10.13;2.35;;;12.10;99.90;;;;;;5070878;28;20696;-64
2022/09/16 07:38:42;;;;;;;6.10;1.50;;;12.10;99.90;;;;;;5070703;28;20382;-66
2022/09/16 07:41:13;;;;;;;4.07;1.27;;;12.20;99.90;;;;;;5072296;28;20727;-64
2022/09/16 07:43:40;;;;;;;7.93;1.73;;;12.20;99.90;;;;;;5075611;28;20394;-65
2022/09/16 07:46:07;;;;;;;6.80;2.38;;;12.30;99.90;;;;;;5074861;28;21025;-65
2022/09/16 07:48:36;;;;;;;6.50;1.80;;;12.40;99.90;;;;;;5078303;28;20612;-65
2022/09/16 07:51:05;;;;;;;7.78;1.80;;;12.40;99.90;;;;;;5078669;28;20591;-64
2022/09/16 07:53:32;;;;;;;7.35;1.73;;;12.40;99.90;;;;;;5079053;28;20730;-65
2022/09/16 07:56:03;;;;;;;6.00;1.70;;;12.40;99.90;;;;;;5078745;28;20377;-65
2022/09/16 07:58:28;;;;;;;10.00;1.98;;;12.50;99.90;;;;;;5079084;28;21266;-64
2022/09/16 08:00:54;;;;;;;9.88;1.92;;;12.50;99.90;;;;;;5079497;28;20389;-63
2022/09/16 08:03:19;;;;;;;8.27;1.97;;;12.60;99.90;;;;;;5077025;28;20665;-64
2022/09/16 08:05:45;;;;;;;9.53;1.90;;;12.70;99.90;;;;;;5077340;28;20442;-63
2022/09/16 08:08:11;;;;;;;6.68;1.55;;;12.80;99.90;;;;;;5077882;28;20432;-63
2022/09/16 08:10:36;;;;;;;8.38;1.80;;;12.90;99.90;;;;;;5080262;28;20463;-63
2022/09/16 08:13:04;;;;;;;7.60;1.70;;;12.90;99.90;;;;;;5081702;28;20381;-63
2022/09/16 08:15:29;;;;;;;6.40;1.65;;;12.90;99.90;;;;;;5078665;28;20466;-63
2022/09/16 08:17:55;;;;;;;9.13;1.70;;;12.90;99.90;;;;;;5078341;28;20488;-63
2022/09/16 08:20:20;;;;;;;7.60;1.77;;;12.90;99.90;;;;;;5079649;28;20615;-63
2022/09/16 08:22:46;;;;;;;6.97;1.60;;;12.90;99.90;;;;;;5079501;28;20897;-63
2022/09/16 08:25:12;;;;;;;7.20;1.52;;;13.00;99.90;;;;;;5079300;28;20635;-63
2022/09/16 08:27:37;;;;;;;8.90;1.80;;;13.00;99.90;;;;;;5077121;28;20397;-63
2022/09/16 08:30:03;;;;;;;8.43;1.90;;;13.10;99.90;;;;;;5077069;28;20398;-63
2022/09/16 08:32:30;;;;;;;8.03;1.70;;;13.10;99.90;;;;;;5081515;28;20473;-63
2022/09/16 08:34:56;;;;;;;8.27;1.83;;;13.10;99.90;;;;;;5081819;28;20470;-63
2022/09/16 08:37:21;;;;;;;5.25;1.42;;;13.10;99.90;;;;;;5084335;28;20473;-63
2022/09/16 08:39:50;;;;;;;8.05;1.65;;;13.10;99.90;;;;;;5082178;28;20413;-63
2022/09/16 08:42:40;;;;;;;7.47;1.95;;;13.20;99.90;;;;;;5085150;28;20447;-63
2022/09/16 08:45:19;;;;;;;7.25;1.90;;;13.20;99.90;;;;;;5084333;28;20682;-63
2022/09/16 08:47:48;;;;;;;6.05;1.50;;;13.40;99.90;;;;;;5079961;28;20402;-62
2022/09/16 08:50:47;;;;;;;5.78;1.90;;;13.40;99.90;;;;;;5082786;28;20416;-62
2022/09/16 08:53:34;;;;;;;6.40;1.77;;;13.50;99.90;;;;;;5037907;28;20742;-62
2022/09/16 08:56:03;;;;;;;8.57;1.92;;;13.50;99.90;;;;;;5081172;28;20778;-63
2022/09/16 08:58:43;;;;;;;8.23;1.95;;;13.50;99.90;;;;;;5082655;28;20394;-63
2022/09/16 09:01:37;;;;;;;7.07;1.58;;;13.50;99.90;;;;;;5087122;28;20671;-63
2022/09/16 09:04:03;;;;;;;8.75;1.90;;;13.50;99.90;;;;;;5089010;28;20382;-63
2022/09/16 09:06:34;;;;;;;6.70;1.70;;;13.40;99.90;;;;;;5085431;28;20634;-63
2022/09/16 09:09:35;;;;;;;9.07;2.03;;;13.40;99.90;;;;;;5084406;28;20540;-63
2022/09/16 09:12:03;;;;;;;9.48;2.17;;;13.40;99.90;;;;;;5057793;28;20866;-63
2022/09/16 09:14:53;;;;;;;8.73;2.13;;;13.40;99.90;;;;;;5080728;28;20875;-63
2022/09/16 09:17:36;;;;;;;7.85;1.90;;;13.60;99.90;;;;;;5077856;28;20512;-63
2022/09/16 09:20:08;;;;;;;12.02;2.38;;;13.70;99.90;;;;;;5083625;28;20435;-62
2022/09/16 09:22:53;;;;;;;9.13;1.90;;;13.70;99.90;;;;;;5085362;28;21102;-63
2022/09/16 09:25:38;;;;;;;9.05;2.33;;;13.90;99.90;;;;;;5088179;28;20705;-62
2022/09/16 09:28:34;;;;;;;8.98;2.30;;;13.90;99.90;;;;;;5087826;28;21477;-63
2022/09/16 09:31:34;;;;;;;9.95;2.65;;;13.80;99.90;;;;;;5088484;28;20373;-62
2022/09/16 09:34:00;;;;;;;10.75;2.15;;;13.70;99.90;;;;;;5087668;28;20370;-62
2022/09/16 09:36:46;;;;;;;6.53;1.88;;;13.60;99.90;;;;;;5084451;28;20565;-63
2022/09/16 09:39:35;;;;;;;6.05;1.80;;;13.50;99.90;;;;;;5088052;28;20582;-63
2022/09/16 09:42:17;;;;;;;9.77;2.03;;;13.30;99.90;;;;;;5090178;28;20396;-63
2022/09/16 09:44:55;;;;;;;8.02;1.98;;;13.20;99.90;;;;;;5091658;28;20967;-63
2022/09/16 09:47:37;;;;;;;7.72;1.60;;;13.00;99.90;;;;;;5090457;28;20483;-63
2022/09/16 09:50:32;;;;;;;10.00;1.58;;;13.10;99.90;;;;;;5090168;28;20371;-64
2022/09/16 09:53:10;;;;;;;7.53;1.48;;;13.10;99.90;;;;;;5089033;28;20377;-63
2022/09/16 09:55:36;;;;;;;7.18;1.85;;;13.20;99.90;;;;;;5088347;28;20374;-64
2022/09/16 09:58:14;;;;;;;6.75;1.80;;;13.30;99.90;;;;;;5091021;28;20386;-63
2022/09/16 10:00:40;;;;;;;8.43;2.00;;;13.40;99.90;;;;;;5091351;28;20378;-70
2022/09/16 10:03:10;;;;;;;6.70;1.37;;;13.50;99.90;;;;;;5089561;28;20440;-48
2022/09/16 10:05:36;;;;;;;8.30;1.90;;;13.60;99.90;;;;;;5089891;28;20399;-54
2022/09/16 10:08:20;;;;;;;8.63;1.80;;;13.80;99.90;;;;;;5086304;28;20499;-53
2022/09/16 10:11:00;;;;;;;8.05;1.90;;;14.00;99.90;;;;;;5086838;28;20453;-53
2022/09/16 10:13:29;;;;;;;4.50;1.30;;;14.20;99.90;;;;;;5082346;28;20394;-54
2022/09/16 10:16:13;;;;;;;4.18;1.40;;;14.20;99.90;;;;;;5083316;28;20377;-50
2022/09/16 10:18:39;;;;;;;6.53;1.63;;;14.30;99.90;;;;;;5086278;28;20793;-53
2022/09/16 10:21:08;;;;;;;7.38;2.03;;;14.40;99.90;;;;;;5083444;28;20632;-63
2022/09/16 10:23:34;;;;;;;7.25;1.65;;;14.30;99.90;;;;;;5084001;28;20433;-63
2022/09/16 10:26:20;;;;;;;8.32;2.05;;;14.30;99.90;;;;;;5084878;28;20394;-63
2022/09/16 10:29:00;;;;;;;9.50;2.37;;;14.40;99.90;;;;;;5083752;28;20465;-63
2022/09/16 10:31:33;;;;;;;8.98;2.20;;;14.40;99.90;;;;;;5087571;28;20469;-63
2022/09/16 10:34:00;;;;;;;7.63;1.70;;;14.40;99.90;;;;;;5087605;28;20483;-63
2022/09/16 10:36:31;;;;;;;5.93;1.98;;;14.50;99.90;;;;;;5086437;28;20420;-64
2022/09/16 10:38:59;;;;;;;8.68;1.70;;;14.60;99.90;;;;;;5083195;28;20405;-63
2022/09/16 10:41:32;;;;;;;5.63;1.80;;;14.80;99.90;;;;;;5084178;28;20374;-63
2022/09/16 10:44:13;;;;;;;5.30;1.40;;;14.90;99.90;;;;;;5083905;28;20603;-63
2022/09/16 10:46:50;;;;;;;6.65;2.00;;;15.20;99.90;;;;;;5083852;28;20568;-63
2022/09/16 10:49:32;;;;;;;7.13;1.80;;;15.40;99.90;;;;;;5083237;28;20390;-63
2022/09/16 10:52:20;;;;;;;5.33;1.40;;;15.60;99.90;;;;;;5083202;28;20544;-63
2022/09/16 10:54:46;;;;;;;8.23;1.98;;;15.80;99.90;;;;;;5081369;28;20378;-63
2022/09/16 10:57:22;;;;;;;5.22;1.35;;;15.70;99.90;;;;;;5081366;28;20409;-63
2022/09/16 10:59:58;;;;;;;6.63;2.00;;;15.90;99.90;;;;;;5082572;28;20496;-63
2022/09/16 11:02:35;;;;;;;5.13;1.60;;;16.00;99.90;;;;;;5080959;28;20469;-63
2022/09/16 11:05:11;;;;;;;6.05;1.60;;;16.20;99.90;;;;;;5079940;28;20406;-63
2022/09/16 11:07:55;;;;;;;8.02;1.50;;;16.00;99.90;;;;;;5079270;28;20413;-63
2022/09/16 11:10:54;;;;;;;7.65;2.15;;;16.00;99.90;;;;;;5078276;28;20574;-63
2022/09/16 11:13:31;;;;;;;8.80;1.77;;;16.20;99.90;;;;;;5074457;28;20969;-62
2022/09/16 11:16:35;;;;;;;9.13;2.15;;;16.40;99.90;;;;;;5071088;28;20668;-62
2022/09/16 11:19:25;;;;;;;9.18;1.75;;;16.40;99.90;;;;;;5031830;28;20433;-62
2022/09/16 11:22:23;;;;;;;7.10;1.60;;;16.30;99.90;;;;;;5070184;28;20862;-63
2022/09/16 11:25:11;;;;;;;7.60;1.40;;;15.70;99.90;;;;;;5072174;28;20378;-63
2022/09/16 11:27:50;;;;;;;5.25;1.30;;;14.70;99.90;;;;;;5070319;28;20883;-63
2022/09/16 11:30:18;;;;;;;5.85;1.35;;;14.20;99.90;;;;;;5071220;28;20785;-63
2022/09/16 11:33:12;;;;;;;6.83;1.40;;;13.80;99.90;;;;;;5073213;28;20840;-63
2022/09/16 11:36:08;;;;;;;5.32;1.23;;;13.60;99.90;;;;;;5075746;28;20378;-63
2022/09/16 11:38:57;;;;;;;7.18;1.60;;;13.50;99.90;;;;;;5078085;28;20378;-63
2022/09/16 11:41:35;;;;;;;4.82;1.58;;;13.60;99.90;;;;;;5076907;28;20896;-63
2022/09/16 11:44:19;;;;;;;8.03;1.80;;;13.90;99.90;;;;;;5075210;28;20421;-63
2022/09/16 11:47:13;;;;;;;9.45;2.00;;;14.20;99.90;;;;;;5073373;28;20433;-63
2022/09/16 11:49:44;;;;;;;9.52;1.90;;;14.50;99.90;;;;;;5076483;28;20665;-63
2022/09/16 11:52:45;;;;;;;7.00;1.67;;;14.50;99.90;;;;;;5077639;28;20650;-63
2022/09/16 11:55:34;;;;;;;6.20;1.75;;;14.50;99.90;;;;;;5075009;28;20761;-64
2022/09/16 11:58:08;;;;;;;8.37;1.80;;;14.90;99.90;;;;;;5084312;28;20378;-63
2022/09/16 12:00:37;;;;;;;12.32;2.40;;;15.20;99.90;;;;;;5085017;28;20390;-63
2022/09/16 12:03:13;;;;;;;8.07;2.00;;;15.70;99.90;;;;;;5085283;28;20990;-63
2022/09/16 12:05:52;;;;;;;8.25;1.90;;;15.90;99.90;;;;;;5082461;28;20402;-63
2022/09/16 12:08:39;;;;;;;7.13;1.98;;;16.30;99.90;;;;;;5083872;28;20416;-63
2022/09/16 12:11:35;;;;;;;7.90;2.20;;;16.50;99.90;;;;;;5084685;28;20381;-63
2022/09/16 12:14:22;;;;;;;8.35;1.88;;;16.60;99.90;;;;;;5086371;28;20377;-63
2022/09/16 12:16:57;;;;;;;7.68;1.85;;;16.80;99.90;;;;;;5085538;28;20410;-63
2022/09/16 12:19:32;;;;;;;8.00;1.55;;;16.80;99.90;;;;;;5087987;28;20382;-63
2022/09/16 12:22:22;;;;;;;7.70;1.90;;;16.90;99.90;;;;;;5085876;28;20644;-63
2022/09/16 12:25:16;;;;;;;6.30;1.88;;;16.60;99.90;;;;;;5085340;28;20381;-63
2022/09/16 12:28:09;;;;;;;9.48;2.50;;;16.20;99.90;;;;;;5083940;28;20405;-63
2022/09/16 12:30:43;;;;;;;11.77;2.85;;;15.90;99.90;;;;;;5083624;28;20386;-62
2022/09/16 12:33:22;;;;;;;9.75;2.10;;;15.50;99.90;;;;;;5082042;28;20473;-62
2022/09/16 12:36:02;;;;;;;6.78;1.48;;;14.70;99.90;;;;;;5081131;28;20411;-63
2022/09/16 12:38:28;;;;;;;6.47;1.70;;;14.10;99.90;;;;;;5085796;28;20390;-62
2022/09/16 12:41:25;;;;;;;7.35;1.60;;;13.90;99.90;;;;;;5087185;28;20446;-62
2022/09/16 12:44:19;;;;;;;5.03;1.23;;;13.70;99.90;;;;;;5088823;28;20740;-63
2022/09/16 12:47:05;;;;;;;6.30;1.70;;;14.10;99.90;;;;;;5087688;28;20402;-63
2022/09/16 12:49:50;;;;;;;8.05;2.03;;;14.50;99.90;;;;;;5086967;28;20378;-63
2022/09/16 12:52:48;;;;;;;5.68;1.73;;;15.00;99.90;;;;;;5087749;28;20382;-63
2022/09/16 12:55:38;;;;;;;9.65;1.95;;;15.40;99.90;;;;;;5051823;28;20382;-63
2022/09/16 12:58:35;;;;;;;7.97;1.88;;;15.30;99.90;;;;;;5085850;28;20378;-63
2022/09/16 13:01:21;;;;;;;8.70;2.00;;;15.10;99.90;;;;;;5079065;28;20389;-62
2022/09/16 13:03:56;;;;;;;8.02;2.20;;;14.70;99.90;;;;;;5086541;28;20385;-62
2022/09/16 13:06:29;;;;;;;4.13;1.33;;;14.40;99.90;;;;;;5083726;28;20671;-62
2022/09/16 13:08:55;;;;;;;6.53;1.80;;;14.50;99.90;;;;;;5084313;28;20510;-62
2022/09/16 13:11:27;;;;;;;6.13;1.33;;;14.40;99.90;;;;;;5083916;28;20874;-62
2022/09/16 13:13:56;;;;;;;8.80;1.70;;;14.40;99.90;;;;;;5083382;28;20417;-62
2022/09/16 13:16:33;;;;;;;4.00;1.40;;;14.50;99.90;;;;;;5084949;28;20442;-62
2022/09/16 13:19:20;;;;;;;6.70;1.70;;;14.50;99.90;;;;;;5084097;28;20850;-62